sensor_id;sensor_type;location;lat;lon;timestamp;P1;durP1;ratioP1;P2;durP2;ratioP2
27985;SDS011;15453;53.692;10.168;2022-09-12T00:00:46;1.20;;;0.70;;
27985;SDS011;15453;53.692;10.168;2022-09-12T00:03:12;1.00;;;0.80;;
27985;SDS011;15453;53.692;10.168;2022-09-12T00:05:44;2.47;;;0.77;;
27985;SDS011;15453;53.692;10.168;2022-09-12T00:08:11;1.25;;;0.77;;
27985;SDS011;15453;53.692;10.168;2022-09-12T00:10:38;1.73;;;0.60;;
27985;SDS011;15453;53.692;10.168;2022-09-12T00:13:05;2.97;;;0.80;;
27985;SDS011;15453;53.692;10.168;2022-09-12T00:15:31;1.08;;;0.80;;
27985;SDS011;15453;53.692;10.168;2022-09-12T00:18:01;0.73;;;0.70;;
27985;SDS011;15453;53.692;10.168;2022-09-12T00:20:26;0.80;;;0.80;;
27985;SDS011;15453;53.692;10.168;2022-09-12T00:22:51;0.85;;;0.65;;
27985;SDS011;15453;53.692;10.168;2022-09-12T00:25:17;1.65;;;0.90;;
27985;SDS011;15453;53.692;10.168;2022-09-12T00:27:42;2.67;;;1.00;;
27985;SDS011;15453;53.692;10.168;2022-09-12T00:30:07;3.13;;;0.98;;
27985;SDS011;15453;53.692;10.168;2022-09-12T00:32:33;0.80;;;0.73;;
27985;SDS011;15453;53.692;10.168;2022-09-12T00:34:58;1.20;;;0.70;;
27985;SDS011;15453;53.692;10.168;2022-09-12T00:37:23;1.30;;;0.73;;
27985;SDS011;15453;53.692;10.168;2022-09-12T00:39:48;1.45;;;0.75;;
27985;SDS011;15453;53.692;10.168;2022-09-12T00:42:14;0.98;;;0.70;;
27985;SDS011;15453;53.692;10.168;2022-09-12T00:44:41;0.80;;;0.50;;
27985;SDS011;15453;53.692;10.168;2022-09-12T00:47:25;0.60;;;0.60;;
27985;SDS011;15453;53.692;10.168;2022-09-12T00:49:59;1.20;;;0.68;;
27985;SDS011;15453;53.692;10.168;2022-09-12T00:52:27;0.90;;;0.65;;
27985;SDS011;15453;53.692;10.168;2022-09-12T00:55:04;0.60;;;0.60;;
27985;SDS011;15453;53.692;10.168;2022-09-12T00:57:38;0.88;;;0.60;;
27985;SDS011;15453;53.692;10.168;2022-09-12T01:00:10;7.28;;;0.80;;
27985;SDS011;15453;53.692;10.168;2022-09-12T01:02:39;2.47;;;0.70;;
27985;SDS011;15453;53.692;10.168;2022-09-12T01:05:06;0.75;;;0.63;;
27985;SDS011;15453;53.692;10.168;2022-09-12T01:07:33;2.80;;;0.60;;
27985;SDS011;15453;53.692;10.168;2022-09-12T01:10:00;3.45;;;0.63;;
27985;SDS011;15453;53.692;10.168;2022-09-12T01:12:26;0.68;;;0.50;;
27985;SDS011;15453;53.692;10.168;2022-09-12T01:14:51;1.10;;;0.60;;
27985;SDS011;15453;53.692;10.168;2022-09-12T01:17:16;0.85;;;0.80;;
27985;SDS011;15453;53.692;10.168;2022-09-12T01:22:35;1.25;;;0.77;;
27985;SDS011;15453;53.692;10.168;2022-09-12T01:25:27;0.73;;;0.63;;
27985;SDS011;15453;53.692;10.168;2022-09-12T01:30:43;1.23;;;0.70;;
27985;SDS011;15453;53.692;10.168;2022-09-12T01:38:59;4.43;;;0.77;;
27985;SDS011;15453;53.692;10.168;2022-09-12T01:44:00;2.10;;;0.65;;
27985;SDS011;15453;53.692;10.168;2022-09-12T01:46:53;2.28;;;0.90;;
27985;SDS011;15453;53.692;10.168;2022-09-12T01:55:12;0.55;;;0.52;;
27985;SDS011;15453;53.692;10.168;2022-09-12T01:57:47;1.08;;;0.60;;
27985;SDS011;15453;53.692;10.168;2022-09-12T02:00:16;2.33;;;0.60;;
27985;SDS011;15453;53.692;10.168;2022-09-12T02:02:48;0.60;;;0.60;;
27985;SDS011;15453;53.692;10.168;2022-09-12T02:05:32;6.78;;;1.13;;
27985;SDS011;15453;53.692;10.168;2022-09-12T02:08:06;0.75;;;0.50;;
27985;SDS011;15453;53.692;10.168;2022-09-12T02:10:40;1.35;;;0.70;;
27985;SDS011;15453;53.692;10.168;2022-09-12T02:13:10;1.88;;;0.80;;
27985;SDS011;15453;53.692;10.168;2022-09-12T02:15:40;1.20;;;0.63;;
27985;SDS011;15453;53.692;10.168;2022-09-12T02:18:10;1.10;;;0.80;;
27985;SDS011;15453;53.692;10.168;2022-09-12T02:20:39;1.17;;;0.93;;
27985;SDS011;15453;53.692;10.168;2022-09-12T02:23:07;1.67;;;0.90;;
27985;SDS011;15453;53.692;10.168;2022-09-12T02:25:40;3.03;;;1.00;;
27985;SDS011;15453;53.692;10.168;2022-09-12T02:28:13;0.90;;;0.80;;
27985;SDS011;15453;53.692;10.168;2022-09-12T02:30:43;1.02;;;0.70;;
27985;SDS011;15453;53.692;10.168;2022-09-12T02:35:52;2.13;;;1.00;;
27985;SDS011;15453;53.692;10.168;2022-09-12T02:38:29;2.45;;;0.80;;
27985;SDS011;15453;53.692;10.168;2022-09-12T02:40:59;0.90;;;0.70;;
27985;SDS011;15453;53.692;10.168;2022-09-12T02:43:24;1.15;;;0.90;;
27985;SDS011;15453;53.692;10.168;2022-09-12T02:45:50;0.82;;;0.70;;
27985;SDS011;15453;53.692;10.168;2022-09-12T02:48:20;1.58;;;0.88;;
27985;SDS011;15453;53.692;10.168;2022-09-12T02:50:50;0.93;;;0.68;;
27985;SDS011;15453;53.692;10.168;2022-09-12T02:53:15;2.42;;;0.70;;
27985;SDS011;15453;53.692;10.168;2022-09-12T02:55:42;1.27;;;0.70;;
27985;SDS011;15453;53.692;10.168;2022-09-12T02:58:09;2.17;;;0.80;;
27985;SDS011;15453;53.692;10.168;2022-09-12T03:00:43;2.53;;;0.90;;
27985;SDS011;15453;53.692;10.168;2022-09-12T03:03:31;1.63;;;0.63;;
27985;SDS011;15453;53.692;10.168;2022-09-12T03:06:20;1.52;;;0.75;;
27985;SDS011;15453;53.692;10.168;2022-09-12T03:08:59;1.60;;;0.88;;
27985;SDS011;15453;53.692;10.168;2022-09-12T03:25:16;0.75;;;0.73;;
27985;SDS011;15453;53.692;10.168;2022-09-12T03:27:53;3.38;;;0.82;;
27985;SDS011;15453;53.692;10.168;2022-09-12T03:30:23;0.90;;;0.70;;
27985;SDS011;15453;53.692;10.168;2022-09-12T03:32:49;1.17;;;0.70;;
27985;SDS011;15453;53.692;10.168;2022-09-12T03:35:18;1.10;;;0.70;;
27985;SDS011;15453;53.692;10.168;2022-09-12T03:37:45;2.20;;;0.85;;
27985;SDS011;15453;53.692;10.168;2022-09-12T03:40:12;5.07;;;0.90;;
27985;SDS011;15453;53.692;10.168;2022-09-12T03:42:37;2.20;;;1.20;;
27985;SDS011;15453;53.692;10.168;2022-09-12T03:45:03;0.68;;;0.60;;
27985;SDS011;15453;53.692;10.168;2022-09-12T03:47:29;1.35;;;0.60;;
27985;SDS011;15453;53.692;10.168;2022-09-12T03:49:55;1.73;;;0.60;;
27985;SDS011;15453;53.692;10.168;2022-09-12T03:52:20;1.75;;;0.73;;
27985;SDS011;15453;53.692;10.168;2022-09-12T03:54:45;1.85;;;0.60;;
27985;SDS011;15453;53.692;10.168;2022-09-12T03:57:10;2.55;;;0.90;;
27985;SDS011;15453;53.692;10.168;2022-09-12T03:59:36;3.58;;;0.82;;
27985;SDS011;15453;53.692;10.168;2022-09-12T04:02:01;1.13;;;0.95;;
27985;SDS011;15453;53.692;10.168;2022-09-12T04:04:27;1.70;;;0.95;;
27985;SDS011;15453;53.692;10.168;2022-09-12T04:06:53;0.85;;;0.60;;
27985;SDS011;15453;53.692;10.168;2022-09-12T04:09:19;2.08;;;1.00;;
27985;SDS011;15453;53.692;10.168;2022-09-12T04:11:44;1.38;;;0.90;;
27985;SDS011;15453;53.692;10.168;2022-09-12T04:14:09;2.17;;;0.88;;
27985;SDS011;15453;53.692;10.168;2022-09-12T04:16:34;3.45;;;0.98;;
27985;SDS011;15453;53.692;10.168;2022-09-12T04:19:00;1.02;;;0.93;;
27985;SDS011;15453;53.692;10.168;2022-09-12T04:21:25;1.00;;;0.90;;
27985;SDS011;15453;53.692;10.168;2022-09-12T04:23:50;2.15;;;0.90;;
27985;SDS011;15453;53.692;10.168;2022-09-12T04:26:16;1.35;;;0.88;;
27985;SDS011;15453;53.692;10.168;2022-09-12T04:28:42;3.50;;;0.98;;
27985;SDS011;15453;53.692;10.168;2022-09-12T04:31:10;3.22;;;1.10;;
27985;SDS011;15453;53.692;10.168;2022-09-12T04:33:37;1.40;;;0.90;;
27985;SDS011;15453;53.692;10.168;2022-09-12T04:36:07;1.40;;;0.90;;
27985;SDS011;15453;53.692;10.168;2022-09-12T04:38:35;2.17;;;1.20;;
27985;SDS011;15453;53.692;10.168;2022-09-12T04:41:08;3.88;;;1.20;;
27985;SDS011;15453;53.692;10.168;2022-09-12T04:43:35;4.32;;;1.20;;
27985;SDS011;15453;53.692;10.168;2022-09-12T04:46:04;5.40;;;1.30;;
27985;SDS011;15453;53.692;10.168;2022-09-12T04:48:33;4.18;;;1.33;;
27985;SDS011;15453;53.692;10.168;2022-09-12T04:51:16;3.85;;;1.20;;
27985;SDS011;15453;53.692;10.168;2022-09-12T04:53:48;6.72;;;1.75;;
27985;SDS011;15453;53.692;10.168;2022-09-12T04:56:17;2.35;;;1.40;;
27985;SDS011;15453;53.692;10.168;2022-09-12T04:58:44;4.50;;;1.35;;
27985;SDS011;15453;53.692;10.168;2022-09-12T05:01:11;2.90;;;1.17;;
27985;SDS011;15453;53.692;10.168;2022-09-12T05:03:38;2.53;;;1.20;;
27985;SDS011;15453;53.692;10.168;2022-09-12T05:06:05;2.75;;;1.30;;
27985;SDS011;15453;53.692;10.168;2022-09-12T05:08:32;4.18;;;1.17;;
27985;SDS011;15453;53.692;10.168;2022-09-12T05:11:02;3.58;;;1.63;;
27985;SDS011;15453;53.692;10.168;2022-09-12T05:13:29;3.08;;;1.30;;
27985;SDS011;15453;53.692;10.168;2022-09-12T05:15:59;1.70;;;1.20;;
27985;SDS011;15453;53.692;10.168;2022-09-12T05:18:26;1.48;;;0.90;;
27985;SDS011;15453;53.692;10.168;2022-09-12T05:20:52;1.40;;;0.88;;
27985;SDS011;15453;53.692;10.168;2022-09-12T05:23:19;2.00;;;1.35;;
27985;SDS011;15453;53.692;10.168;2022-09-12T05:25:50;2.40;;;1.50;;
27985;SDS011;15453;53.692;10.168;2022-09-12T05:28:17;1.48;;;1.08;;
27985;SDS011;15453;53.692;10.168;2022-09-12T05:30:43;1.77;;;1.17;;
27985;SDS011;15453;53.692;10.168;2022-09-12T05:33:09;2.03;;;1.20;;
27985;SDS011;15453;53.692;10.168;2022-09-12T05:35:34;2.25;;;1.25;;
27985;SDS011;15453;53.692;10.168;2022-09-12T05:38:02;1.35;;;1.08;;
27985;SDS011;15453;53.692;10.168;2022-09-12T05:40:27;2.38;;;1.10;;
27985;SDS011;15453;53.692;10.168;2022-09-12T05:42:52;5.65;;;1.00;;
27985;SDS011;15453;53.692;10.168;2022-09-12T05:45:18;1.80;;;1.17;;
27985;SDS011;15453;53.692;10.168;2022-09-12T05:47:45;2.47;;;1.45;;
27985;SDS011;15453;53.692;10.168;2022-09-12T05:50:11;4.05;;;1.50;;
27985;SDS011;15453;53.692;10.168;2022-09-12T05:52:36;4.05;;;1.58;;
27985;SDS011;15453;53.692;10.168;2022-09-12T05:55:02;1.67;;;1.48;;
27985;SDS011;15453;53.692;10.168;2022-09-12T05:57:27;2.83;;;1.27;;
27985;SDS011;15453;53.692;10.168;2022-09-12T05:59:53;4.40;;;1.40;;
27985;SDS011;15453;53.692;10.168;2022-09-12T06:02:18;5.80;;;1.38;;
27985;SDS011;15453;53.692;10.168;2022-09-12T06:27:31;2.70;;;1.25;;
27985;SDS011;15453;53.692;10.168;2022-09-12T06:29:56;2.47;;;1.30;;
27985;SDS011;15453;53.692;10.168;2022-09-12T06:32:21;1.70;;;1.17;;
27985;SDS011;15453;53.692;10.168;2022-09-12T06:34:47;2.95;;;1.30;;
27985;SDS011;15453;53.692;10.168;2022-09-12T06:37:12;2.80;;;1.50;;
27985;SDS011;15453;53.692;10.168;2022-09-12T06:39:37;2.45;;;1.10;;
27985;SDS011;15453;53.692;10.168;2022-09-12T06:42:03;1.90;;;1.33;;
27985;SDS011;15453;53.692;10.168;2022-09-12T06:44:28;4.15;;;2.00;;
27985;SDS011;15453;53.692;10.168;2022-09-12T06:46:53;2.75;;;1.70;;
27985;SDS011;15453;53.692;10.168;2022-09-12T06:49:18;3.90;;;1.60;;
27985;SDS011;15453;53.692;10.168;2022-09-12T06:51:44;2.40;;;2.05;;
27985;SDS011;15453;53.692;10.168;2022-09-12T06:54:12;3.13;;;2.00;;
27985;SDS011;15453;53.692;10.168;2022-09-12T06:56:39;5.90;;;2.53;;
27985;SDS011;15453;53.692;10.168;2022-09-12T06:59:05;3.72;;;2.75;;
27985;SDS011;15453;53.692;10.168;2022-09-12T07:01:30;3.95;;;3.35;;
27985;SDS011;15453;53.692;10.168;2022-09-12T07:03:57;6.00;;;3.88;;
27985;SDS011;15453;53.692;10.168;2022-09-12T07:06:25;5.30;;;3.83;;
27985;SDS011;15453;53.692;10.168;2022-09-12T07:08:58;6.15;;;3.80;;
27985;SDS011;15453;53.692;10.168;2022-09-12T07:11:26;4.70;;;4.05;;
27985;SDS011;15453;53.692;10.168;2022-09-12T07:13:53;4.47;;;3.72;;
27985;SDS011;15453;53.692;10.168;2022-09-12T07:18:51;4.77;;;3.37;;
27985;SDS011;15453;53.692;10.168;2022-09-12T07:21:18;4.47;;;3.50;;
27985;SDS011;15453;53.692;10.168;2022-09-12T07:23:43;4.80;;;3.75;;
27985;SDS011;15453;53.692;10.168;2022-09-12T07:26:10;5.32;;;3.70;;
27985;SDS011;15453;53.692;10.168;2022-09-12T07:28:36;3.78;;;3.33;;
27985;SDS011;15453;53.692;10.168;2022-09-12T07:31:12;3.85;;;3.38;;
27985;SDS011;15453;53.692;10.168;2022-09-12T07:33:39;4.75;;;3.47;;
27985;SDS011;15453;53.692;10.168;2022-09-12T07:36:06;4.60;;;3.85;;
27985;SDS011;15453;53.692;10.168;2022-09-12T07:38:35;3.63;;;3.30;;
27985;SDS011;15453;53.692;10.168;2022-09-12T07:41:01;4.57;;;3.95;;
27985;SDS011;15453;53.692;10.168;2022-09-12T07:43:34;4.50;;;3.30;;
27985;SDS011;15453;53.692;10.168;2022-09-12T07:45:59;4.32;;;3.40;;
27985;SDS011;15453;53.692;10.168;2022-09-12T07:48:25;3.90;;;3.45;;
27985;SDS011;15453;53.692;10.168;2022-09-12T07:51:00;3.83;;;3.30;;
27985;SDS011;15453;53.692;10.168;2022-09-12T07:53:32;5.63;;;3.78;;
27985;SDS011;15453;53.692;10.168;2022-09-12T07:55:59;5.05;;;3.70;;
27985;SDS011;15453;53.692;10.168;2022-09-12T07:58:25;5.53;;;3.40;;
27985;SDS011;15453;53.692;10.168;2022-09-12T08:00:50;3.63;;;3.15;;
27985;SDS011;15453;53.692;10.168;2022-09-12T08:03:16;6.05;;;3.08;;
27985;SDS011;15453;53.692;10.168;2022-09-12T08:05:41;4.00;;;3.58;;
27985;SDS011;15453;53.692;10.168;2022-09-12T08:08:07;3.65;;;2.78;;
27985;SDS011;15453;53.692;10.168;2022-09-12T08:10:33;3.60;;;3.00;;
27985;SDS011;15453;53.692;10.168;2022-09-12T08:12:59;3.38;;;2.78;;
27985;SDS011;15453;53.692;10.168;2022-09-12T08:15:24;3.67;;;2.70;;
27985;SDS011;15453;53.692;10.168;2022-09-12T08:17:49;3.67;;;2.38;;
27985;SDS011;15453;53.692;10.168;2022-09-12T08:20:14;3.38;;;2.85;;
27985;SDS011;15453;53.692;10.168;2022-09-12T08:22:41;3.20;;;2.55;;
27985;SDS011;15453;53.692;10.168;2022-09-12T08:25:07;3.10;;;2.33;;
27985;SDS011;15453;53.692;10.168;2022-09-12T08:27:33;3.80;;;2.85;;
27985;SDS011;15453;53.692;10.168;2022-09-12T08:29:58;3.70;;;2.75;;
27985;SDS011;15453;53.692;10.168;2022-09-12T08:32:24;3.40;;;2.60;;
27985;SDS011;15453;53.692;10.168;2022-09-12T08:34:49;4.63;;;2.72;;
27985;SDS011;15453;53.692;10.168;2022-09-12T08:37:14;2.72;;;2.50;;
27985;SDS011;15453;53.692;10.168;2022-09-12T08:39:40;3.13;;;2.38;;
27985;SDS011;15453;53.692;10.168;2022-09-12T08:42:05;3.65;;;2.72;;
27985;SDS011;15453;53.692;10.168;2022-09-12T08:44:46;6.72;;;3.10;;
27985;SDS011;15453;53.692;10.168;2022-09-12T08:57:55;3.33;;;2.72;;
27985;SDS011;15453;53.692;10.168;2022-09-12T09:00:21;3.95;;;2.67;;
27985;SDS011;15453;53.692;10.168;2022-09-12T09:05:39;3.20;;;2.13;;
27985;SDS011;15453;53.692;10.168;2022-09-12T09:08:13;3.22;;;2.22;;
27985;SDS011;15453;53.692;10.168;2022-09-12T09:10:58;2.55;;;2.15;;
27985;SDS011;15453;53.692;10.168;2022-09-12T09:13:37;2.47;;;2.28;;
27985;SDS011;15453;53.692;10.168;2022-09-12T09:16:34;3.25;;;1.70;;
27985;SDS011;15453;53.692;10.168;2022-09-12T09:19:03;3.58;;;2.10;;
27985;SDS011;15453;53.692;10.168;2022-09-12T09:21:51;2.10;;;1.90;;
27985;SDS011;15453;53.692;10.168;2022-09-12T09:24:43;2.13;;;1.70;;
27985;SDS011;15453;53.692;10.168;2022-09-12T09:27:16;1.92;;;1.73;;
27985;SDS011;15453;53.692;10.168;2022-09-12T09:29:54;3.05;;;1.80;;
27985;SDS011;15453;53.692;10.168;2022-09-12T09:32:36;2.47;;;1.70;;
27985;SDS011;15453;53.692;10.168;2022-09-12T09:38:00;3.45;;;1.52;;
27985;SDS011;15453;53.692;10.168;2022-09-12T09:40:33;3.05;;;1.90;;
27985;SDS011;15453;53.692;10.168;2022-09-12T09:45:39;2.15;;;1.60;;
27985;SDS011;15453;53.692;10.168;2022-09-12T09:48:15;2.13;;;1.50;;
27985;SDS011;15453;53.692;10.168;2022-09-12T09:50:58;1.45;;;1.20;;
27985;SDS011;15453;53.692;10.168;2022-09-12T09:53:46;3.35;;;1.10;;
27985;SDS011;15453;53.692;10.168;2022-09-12T09:56:35;1.63;;;1.15;;
27985;SDS011;15453;53.692;10.168;2022-09-12T09:59:14;1.15;;;0.90;;
27985;SDS011;15453;53.692;10.168;2022-09-12T10:01:54;1.55;;;1.05;;
27985;SDS011;15453;53.692;10.168;2022-09-12T10:04:25;1.98;;;1.30;;
27985;SDS011;15453;53.692;10.168;2022-09-12T10:06:54;6.60;;;0.93;;
27985;SDS011;15453;53.692;10.168;2022-09-12T10:09:22;0.90;;;0.85;;
27985;SDS011;15453;53.692;10.168;2022-09-12T10:11:57;1.10;;;0.80;;
27985;SDS011;15453;53.692;10.168;2022-09-12T10:17:20;0.95;;;0.75;;
27985;SDS011;15453;53.692;10.168;2022-09-12T10:19:47;1.55;;;0.90;;
27985;SDS011;15453;53.692;10.168;2022-09-12T10:22:15;0.85;;;0.82;;
27985;SDS011;15453;53.692;10.168;2022-09-12T10:24:46;1.08;;;0.93;;
27985;SDS011;15453;53.692;10.168;2022-09-12T10:27:19;1.02;;;0.73;;
27985;SDS011;15453;53.692;10.168;2022-09-12T10:29:54;1.02;;;0.77;;
27985;SDS011;15453;53.692;10.168;2022-09-12T10:32:26;2.10;;;0.98;;
27985;SDS011;15453;53.692;10.168;2022-09-12T10:34:56;1.98;;;0.90;;
27985;SDS011;15453;53.692;10.168;2022-09-12T10:39:57;0.88;;;0.70;;
27985;SDS011;15453;53.692;10.168;2022-09-12T10:47:59;1.20;;;1.00;;
27985;SDS011;15453;53.692;10.168;2022-09-12T10:53:42;0.90;;;0.70;;
27985;SDS011;15453;53.692;10.168;2022-09-12T10:56:08;1.48;;;0.85;;
27985;SDS011;15453;53.692;10.168;2022-09-12T11:01:28;1.30;;;1.00;;
27985;SDS011;15453;53.692;10.168;2022-09-12T11:06:47;1.50;;;1.10;;
27985;SDS011;15453;53.692;10.168;2022-09-12T11:15:02;2.38;;;0.98;;
27985;SDS011;15453;53.692;10.168;2022-09-12T11:29:02;1.55;;;0.82;;
27985;SDS011;15453;53.692;10.168;2022-09-12T11:43:12;1.27;;;1.00;;
27985;SDS011;15453;53.692;10.168;2022-09-12T11:45:45;2.30;;;1.25;;
27985;SDS011;15453;53.692;10.168;2022-09-12T11:51:04;2.85;;;1.42;;
27985;SDS011;15453;53.692;10.168;2022-09-12T11:53:39;1.40;;;1.25;;
27985;SDS011;15453;53.692;10.168;2022-09-12T11:56:40;1.27;;;1.05;;
27985;SDS011;15453;53.692;10.168;2022-09-12T11:59:02;1.92;;;1.30;;
27985;SDS011;15453;53.692;10.168;2022-09-12T12:01:40;2.03;;;1.20;;
27985;SDS011;15453;53.692;10.168;2022-09-12T12:04:10;2.53;;;1.50;;
27985;SDS011;15453;53.692;10.168;2022-09-12T12:06:47;2.55;;;1.60;;
27985;SDS011;15453;53.692;10.168;2022-09-12T12:09:19;1.75;;;1.40;;
27985;SDS011;15453;53.692;10.168;2022-09-12T12:11:47;1.52;;;1.17;;
27985;SDS011;15453;53.692;10.168;2022-09-12T12:14:17;1.48;;;1.27;;
27985;SDS011;15453;53.692;10.168;2022-09-12T12:17:16;7.85;;;4.50;;
27985;SDS011;15453;53.692;10.168;2022-09-12T12:19:44;4.15;;;2.67;;
27985;SDS011;15453;53.692;10.168;2022-09-12T12:22:14;2.88;;;1.98;;
27985;SDS011;15453;53.692;10.168;2022-09-12T12:27:48;2.35;;;1.50;;
27985;SDS011;15453;53.692;10.168;2022-09-12T12:33:06;2.53;;;1.50;;
27985;SDS011;15453;53.692;10.168;2022-09-12T12:41:41;1.65;;;1.30;;
27985;SDS011;15453;53.692;10.168;2022-09-12T12:43:50;2.85;;;1.60;;
27985;SDS011;15453;53.692;10.168;2022-09-12T12:46:18;2.28;;;1.40;;
27985;SDS011;15453;53.692;10.168;2022-09-12T12:59:43;3.37;;;1.70;;
27985;SDS011;15453;53.692;10.168;2022-09-12T13:02:17;1.67;;;1.20;;
27985;SDS011;15453;53.692;10.168;2022-09-12T13:04:46;1.83;;;1.10;;
27985;SDS011;15453;53.692;10.168;2022-09-12T13:07:19;2.33;;;1.20;;
27985;SDS011;15453;53.692;10.168;2022-09-12T13:09:50;4.28;;;2.78;;
27985;SDS011;15453;53.692;10.168;2022-09-12T13:12:23;3.20;;;2.30;;
27985;SDS011;15453;53.692;10.168;2022-09-12T13:14:52;2.28;;;1.50;;
27985;SDS011;15453;53.692;10.168;2022-09-12T13:17:23;6.28;;;2.92;;
27985;SDS011;15453;53.692;10.168;2022-09-12T13:19:53;3.88;;;1.80;;
27985;SDS011;15453;53.692;10.168;2022-09-12T13:22:37;3.30;;;1.40;;
27985;SDS011;15453;53.692;10.168;2022-09-12T13:25:21;2.53;;;1.17;;
27985;SDS011;15453;53.692;10.168;2022-09-12T13:30:27;1.42;;;1.02;;
27985;SDS011;15453;53.692;10.168;2022-09-12T13:32:56;1.57;;;1.03;;
27985;SDS011;15453;53.692;10.168;2022-09-12T13:36:14;2.08;;;0.90;;
27985;SDS011;15453;53.692;10.168;2022-09-12T13:43:58;1.83;;;1.40;;
27985;SDS011;15453;53.692;10.168;2022-09-12T13:46:26;3.03;;;2.08;;
27985;SDS011;15453;53.692;10.168;2022-09-12T13:48:55;1.43;;;1.20;;
27985;SDS011;15453;53.692;10.168;2022-09-12T13:51:26;1.30;;;1.17;;
27985;SDS011;15453;53.692;10.168;2022-09-12T13:53:56;3.20;;;1.50;;
27985;SDS011;15453;53.692;10.168;2022-09-12T13:56:24;3.60;;;2.58;;
27985;SDS011;15453;53.692;10.168;2022-09-12T13:59:08;2.83;;;1.90;;
27985;SDS011;15453;53.692;10.168;2022-09-12T14:01:36;2.05;;;1.50;;
27985;SDS011;15453;53.692;10.168;2022-09-12T14:04:13;1.00;;;1.00;;
27985;SDS011;15453;53.692;10.168;2022-09-12T14:07:09;2.47;;;1.20;;
27985;SDS011;15453;53.692;10.168;2022-09-12T14:09:40;1.10;;;0.98;;
27985;SDS011;15453;53.692;10.168;2022-09-12T14:12:14;2.85;;;1.00;;
27985;SDS011;15453;53.692;10.168;2022-09-12T14:14:49;2.08;;;0.90;;
27985;SDS011;15453;53.692;10.168;2022-09-12T14:17:17;4.55;;;2.17;;
27985;SDS011;15453;53.692;10.168;2022-09-12T14:19:47;3.05;;;1.90;;
27985;SDS011;15453;53.692;10.168;2022-09-12T14:22:13;2.35;;;1.40;;
27985;SDS011;15453;53.692;10.168;2022-09-12T14:24:42;1.73;;;1.35;;
27985;SDS011;15453;53.692;10.168;2022-09-12T14:27:13;1.98;;;1.30;;
27985;SDS011;15453;53.692;10.168;2022-09-12T14:29:41;3.17;;;1.67;;
27985;SDS011;15453;53.692;10.168;2022-09-12T14:32:12;1.73;;;1.15;;
27985;SDS011;15453;53.692;10.168;2022-09-12T14:35:02;1.60;;;1.15;;
27985;SDS011;15453;53.692;10.168;2022-09-12T14:37:28;1.38;;;1.00;;
27985;SDS011;15453;53.692;10.168;2022-09-12T14:39:54;1.13;;;0.90;;
27985;SDS011;15453;53.692;10.168;2022-09-12T14:42:20;2.55;;;1.30;;
27985;SDS011;15453;53.692;10.168;2022-09-12T14:44:51;1.77;;;1.40;;
27985;SDS011;15453;53.692;10.168;2022-09-12T14:47:22;2.40;;;1.75;;
27985;SDS011;15453;53.692;10.168;2022-09-12T14:49:50;2.20;;;1.80;;
27985;SDS011;15453;53.692;10.168;2022-09-12T14:54:57;6.15;;;4.03;;
27985;SDS011;15453;53.692;10.168;2022-09-12T14:57:43;2.50;;;2.00;;
27985;SDS011;15453;53.692;10.168;2022-09-12T15:02:44;2.13;;;1.20;;
27985;SDS011;15453;53.692;10.168;2022-09-12T15:07:36;1.57;;;1.13;;
27985;SDS011;15453;53.692;10.168;2022-09-12T15:10:05;2.25;;;1.33;;
27985;SDS011;15453;53.692;10.168;2022-09-12T15:12:40;1.63;;;1.13;;
27985;SDS011;15453;53.692;10.168;2022-09-12T15:15:12;2.17;;;1.30;;
27985;SDS011;15453;53.692;10.168;2022-09-12T15:17:40;3.10;;;1.23;;
27985;SDS011;15453;53.692;10.168;2022-09-12T15:20:06;2.25;;;1.00;;
27985;SDS011;15453;53.692;10.168;2022-09-12T15:22:32;2.72;;;1.98;;
27985;SDS011;15453;53.692;10.168;2022-09-12T15:24:59;2.97;;;1.60;;
27985;SDS011;15453;53.692;10.168;2022-09-12T15:27:24;1.73;;;1.40;;
27985;SDS011;15453;53.692;10.168;2022-09-12T15:29:50;2.03;;;1.30;;
27985;SDS011;15453;53.692;10.168;2022-09-12T15:32:23;1.90;;;1.10;;
27985;SDS011;15453;53.692;10.168;2022-09-12T15:34:50;1.67;;;1.25;;
27985;SDS011;15453;53.692;10.168;2022-09-12T15:37:16;2.00;;;1.40;;
27985;SDS011;15453;53.692;10.168;2022-09-12T15:39:42;1.23;;;1.10;;
27985;SDS011;15453;53.692;10.168;2022-09-12T15:42:10;3.80;;;1.40;;
27985;SDS011;15453;53.692;10.168;2022-09-12T15:44:37;1.55;;;1.17;;
27985;SDS011;15453;53.692;10.168;2022-09-12T15:47:02;1.80;;;1.33;;
27985;SDS011;15453;53.692;10.168;2022-09-12T15:49:27;1.83;;;1.27;;
27985;SDS011;15453;53.692;10.168;2022-09-12T15:51:52;2.55;;;1.25;;
27985;SDS011;15453;53.692;10.168;2022-09-12T15:54:18;11.73;;;4.20;;
27985;SDS011;15453;53.692;10.168;2022-09-12T15:56:44;3.35;;;2.13;;
27985;SDS011;15453;53.692;10.168;2022-09-12T15:59:09;5.53;;;2.53;;
27985;SDS011;15453;53.692;10.168;2022-09-12T16:01:35;2.23;;;1.40;;
27985;SDS011;15453;53.692;10.168;2022-09-12T16:04:00;1.98;;;1.17;;
27985;SDS011;15453;53.692;10.168;2022-09-12T16:06:27;1.30;;;1.20;;
27985;SDS011;15453;53.692;10.168;2022-09-12T16:08:54;1.83;;;1.23;;
27985;SDS011;15453;53.692;10.168;2022-09-12T16:11:24;1.30;;;1.08;;
27985;SDS011;15453;53.692;10.168;2022-09-12T16:13:51;1.20;;;1.00;;
27985;SDS011;15453;53.692;10.168;2022-09-12T16:16:17;5.03;;;2.42;;
27985;SDS011;15453;53.692;10.168;2022-09-12T16:18:43;3.08;;;1.88;;
27985;SDS011;15453;53.692;10.168;2022-09-12T16:21:08;1.97;;;0.93;;
27985;SDS011;15453;53.692;10.168;2022-09-12T16:23:33;2.72;;;1.20;;
27985;SDS011;15453;53.692;10.168;2022-09-12T16:26:00;1.65;;;1.40;;
27985;SDS011;15453;53.692;10.168;2022-09-12T16:28:27;7.43;;;1.50;;
27985;SDS011;15453;53.692;10.168;2022-09-12T16:30:56;1.60;;;1.10;;
27985;SDS011;15453;53.692;10.168;2022-09-12T16:33:23;1.55;;;1.08;;
27985;SDS011;15453;53.692;10.168;2022-09-12T16:35:48;1.95;;;1.30;;
27985;SDS011;15453;53.692;10.168;2022-09-12T16:38:15;8.77;;;1.30;;
27985;SDS011;15453;53.692;10.168;2022-09-12T16:40:41;1.95;;;1.17;;
27985;SDS011;15453;53.692;10.168;2022-09-12T16:43:06;1.90;;;1.20;;
27985;SDS011;15453;53.692;10.168;2022-09-12T16:45:31;2.88;;;1.30;;
27985;SDS011;15453;53.692;10.168;2022-09-12T16:47:56;2.40;;;1.50;;
27985;SDS011;15453;53.692;10.168;2022-09-12T16:50:22;2.10;;;1.20;;
27985;SDS011;15453;53.692;10.168;2022-09-12T16:52:47;3.15;;;1.30;;
27985;SDS011;15453;53.692;10.168;2022-09-12T16:55:12;2.47;;;1.52;;
27985;SDS011;15453;53.692;10.168;2022-09-12T16:57:38;2.63;;;1.45;;
27985;SDS011;15453;53.692;10.168;2022-09-12T17:00:03;2.42;;;1.73;;
27985;SDS011;15453;53.692;10.168;2022-09-12T17:02:29;1.83;;;1.38;;
27985;SDS011;15453;53.692;10.168;2022-09-12T17:04:54;2.23;;;1.57;;
27985;SDS011;15453;53.692;10.168;2022-09-12T17:07:20;5.55;;;1.60;;
27985;SDS011;15453;53.692;10.168;2022-09-12T17:09:45;2.97;;;1.60;;
27985;SDS011;15453;53.692;10.168;2022-09-12T17:12:11;2.47;;;1.63;;
27985;SDS011;15453;53.692;10.168;2022-09-12T17:14:36;1.73;;;1.60;;
27985;SDS011;15453;53.692;10.168;2022-09-12T17:17:01;2.35;;;1.70;;
27985;SDS011;15453;53.692;10.168;2022-09-12T17:19:26;2.30;;;1.58;;
27985;SDS011;15453;53.692;10.168;2022-09-12T17:21:53;1.75;;;1.63;;
27985;SDS011;15453;53.692;10.168;2022-09-12T17:24:19;1.65;;;1.33;;
27985;SDS011;15453;53.692;10.168;2022-09-12T17:26:45;3.10;;;1.67;;
27985;SDS011;15453;53.692;10.168;2022-09-12T17:29:11;2.80;;;1.92;;
27985;SDS011;15453;53.692;10.168;2022-09-12T17:31:38;3.45;;;1.88;;
27985;SDS011;15453;53.692;10.168;2022-09-12T17:34:03;1.70;;;1.60;;
27985;SDS011;15453;53.692;10.168;2022-09-12T17:36:29;2.22;;;1.50;;